Terminal Aerodrome Forecast
Issued by NWS Wakefield, VA

Home | Current Version | Previous Version | Text Only | Print | Product List | Glossary On
Versions: 1 2 3 4 5 6 7 8 9 10 11 12 13 14 15 16 17
000
FTUS41 KAKQ 020818 AAA
TAFECG
TAF AMD
KECG 020818Z 0208/0306 VRB06KT P6SM SKC
      TEMPO 0208/0212 1SM MIFG FEW003
     FM021600 14006KT P6SM SCT080
     FM021900 12008KT P6SM VCSH BKN060 BKN120
     FM030100 16005KT P6SM SCT080 BKN120=

USA.gov is the U.S. government's official web portal to all federal, state and local government web resources and services.